sensor_id;sensor_type;location;lat;lon;timestamp;P1;durP1;ratioP1;P2;durP2;ratioP2
13651;SDS011;6899;51.546;6.912;2023-03-26T00:01:46;27.00;;;9.15;;
13651;SDS011;6899;51.546;6.912;2023-03-26T00:04:16;26.20;;;8.48;;
13651;SDS011;6899;51.546;6.912;2023-03-26T00:06:44;29.27;;;8.02;;
13651;SDS011;6899;51.546;6.912;2023-03-26T00:09:13;25.00;;;8.02;;
13651;SDS011;6899;51.546;6.912;2023-03-26T00:11:43;27.08;;;8.38;;
13651;SDS011;6899;51.546;6.912;2023-03-26T00:14:10;18.50;;;6.80;;
13651;SDS011;6899;51.546;6.912;2023-03-26T00:16:42;33.35;;;8.25;;
13651;SDS011;6899;51.546;6.912;2023-03-26T00:19:11;30.08;;;7.50;;
13651;SDS011;6899;51.546;6.912;2023-03-26T00:21:37;27.55;;;6.57;;
13651;SDS011;6899;51.546;6.912;2023-03-26T00:24:06;26.27;;;7.43;;
13651;SDS011;6899;51.546;6.912;2023-03-26T00:26:36;23.35;;;7.68;;
13651;SDS011;6899;51.546;6.912;2023-03-26T00:29:05;24.05;;;6.68;;
13651;SDS011;6899;51.546;6.912;2023-03-26T00:31:34;38.13;;;7.30;;
13651;SDS011;6899;51.546;6.912;2023-03-26T00:34:11;29.52;;;7.20;;
13651;SDS011;6899;51.546;6.912;2023-03-26T00:36:39;26.10;;;6.97;;
13651;SDS011;6899;51.546;6.912;2023-03-26T00:39:08;26.08;;;7.25;;
13651;SDS011;6899;51.546;6.912;2023-03-26T00:41:34;28.80;;;6.72;;
13651;SDS011;6899;51.546;6.912;2023-03-26T00:44:07;33.58;;;8.02;;
13651;SDS011;6899;51.546;6.912;2023-03-26T00:46:34;26.92;;;7.38;;
13651;SDS011;6899;51.546;6.912;2023-03-26T00:49:02;25.80;;;7.70;;
13651;SDS011;6899;51.546;6.912;2023-03-26T00:51:29;29.58;;;8.32;;
13651;SDS011;6899;51.546;6.912;2023-03-26T00:53:57;32.97;;;9.10;;
13651;SDS011;6899;51.546;6.912;2023-03-26T00:56:24;37.90;;;8.32;;
13651;SDS011;6899;51.546;6.912;2023-03-26T00:58:51;28.83;;;7.35;;
13651;SDS011;6899;51.546;6.912;2023-03-26T01:01:18;24.95;;;6.63;;
13651;SDS011;6899;51.546;6.912;2023-03-26T01:03:51;29.30;;;7.00;;
13651;SDS011;6899;51.546;6.912;2023-03-26T01:06:25;34.55;;;8.38;;
13651;SDS011;6899;51.546;6.912;2023-03-26T01:08:56;30.35;;;7.18;;
13651;SDS011;6899;51.546;6.912;2023-03-26T01:11:29;25.60;;;6.53;;
13651;SDS011;6899;51.546;6.912;2023-03-26T01:13:58;34.08;;;7.88;;
13651;SDS011;6899;51.546;6.912;2023-03-26T01:16:27;27.60;;;7.07;;
13651;SDS011;6899;51.546;6.912;2023-03-26T01:18:57;32.30;;;7.40;;
13651;SDS011;6899;51.546;6.912;2023-03-26T01:21:26;22.77;;;7.85;;
13651;SDS011;6899;51.546;6.912;2023-03-26T01:23:57;29.05;;;6.40;;
13651;SDS011;6899;51.546;6.912;2023-03-26T01:26:37;32.97;;;7.50;;
13651;SDS011;6899;51.546;6.912;2023-03-26T01:29:18;35.53;;;7.25;;
13651;SDS011;6899;51.546;6.912;2023-03-26T01:31:49;26.52;;;6.35;;
13651;SDS011;6899;51.546;6.912;2023-03-26T01:34:23;37.78;;;7.80;;
13651;SDS011;6899;51.546;6.912;2023-03-26T01:37:02;26.55;;;7.45;;
13651;SDS011;6899;51.546;6.912;2023-03-26T01:39:39;30.83;;;6.75;;
13651;SDS011;6899;51.546;6.912;2023-03-26T01:42:14;29.90;;;6.00;;
13651;SDS011;6899;51.546;6.912;2023-03-26T01:44:46;45.88;;;8.23;;
13651;SDS011;6899;51.546;6.912;2023-03-26T01:47:19;25.52;;;5.78;;
13651;SDS011;6899;51.546;6.912;2023-03-26T01:49:47;30.02;;;6.60;;
13651;SDS011;6899;51.546;6.912;2023-03-26T01:52:14;24.90;;;5.57;;
13651;SDS011;6899;51.546;6.912;2023-03-26T01:54:44;34.17;;;6.00;;
13651;SDS011;6899;51.546;6.912;2023-03-26T01:57:13;36.85;;;7.13;;
13651;SDS011;6899;51.546;6.912;2023-03-26T01:59:54;25.50;;;6.18;;
13651;SDS011;6899;51.546;6.912;2023-03-26T02:02:35;35.72;;;6.70;;
13651;SDS011;6899;51.546;6.912;2023-03-26T02:05:23;31.17;;;7.18;;
13651;SDS011;6899;51.546;6.912;2023-03-26T02:07:56;37.55;;;7.05;;
13651;SDS011;6899;51.546;6.912;2023-03-26T02:10:30;21.83;;;5.50;;
13651;SDS011;6899;51.546;6.912;2023-03-26T02:13:00;30.13;;;6.43;;
13651;SDS011;6899;51.546;6.912;2023-03-26T02:15:28;32.25;;;6.88;;
13651;SDS011;6899;51.546;6.912;2023-03-26T02:17:54;31.10;;;6.93;;
13651;SDS011;6899;51.546;6.912;2023-03-26T02:20:23;30.90;;;7.22;;
13651;SDS011;6899;51.546;6.912;2023-03-26T02:22:54;31.23;;;6.32;;
13651;SDS011;6899;51.546;6.912;2023-03-26T02:25:21;25.63;;;5.95;;
13651;SDS011;6899;51.546;6.912;2023-03-26T02:27:51;27.35;;;6.63;;
13651;SDS011;6899;51.546;6.912;2023-03-26T02:30:19;24.42;;;5.80;;
13651;SDS011;6899;51.546;6.912;2023-03-26T02:32:49;31.00;;;6.97;;
13651;SDS011;6899;51.546;6.912;2023-03-26T02:35:18;22.40;;;6.90;;
13651;SDS011;6899;51.546;6.912;2023-03-26T02:37:45;25.23;;;5.63;;
13651;SDS011;6899;51.546;6.912;2023-03-26T02:40:15;34.10;;;6.38;;
13651;SDS011;6899;51.546;6.912;2023-03-26T02:42:42;25.23;;;5.85;;
13651;SDS011;6899;51.546;6.912;2023-03-26T02:45:10;29.02;;;6.03;;
13651;SDS011;6899;51.546;6.912;2023-03-26T02:47:37;27.63;;;5.45;;
13651;SDS011;6899;51.546;6.912;2023-03-26T02:50:04;40.67;;;6.40;;
13651;SDS011;6899;51.546;6.912;2023-03-26T02:52:32;27.15;;;7.13;;
13651;SDS011;6899;51.546;6.912;2023-03-26T02:55:00;37.83;;;6.32;;
13651;SDS011;6899;51.546;6.912;2023-03-26T02:57:27;30.67;;;5.75;;
13651;SDS011;6899;51.546;6.912;2023-03-26T02:59:53;23.23;;;5.00;;
13651;SDS011;6899;51.546;6.912;2023-03-26T03:02:22;29.00;;;5.15;;
13651;SDS011;6899;51.546;6.912;2023-03-26T03:04:49;27.30;;;6.13;;
13651;SDS011;6899;51.546;6.912;2023-03-26T03:07:16;23.23;;;4.88;;
13651;SDS011;6899;51.546;6.912;2023-03-26T03:09:44;26.67;;;5.35;;
13651;SDS011;6899;51.546;6.912;2023-03-26T03:12:11;28.00;;;6.20;;
13651;SDS011;6899;51.546;6.912;2023-03-26T03:14:37;24.05;;;4.55;;
13651;SDS011;6899;51.546;6.912;2023-03-26T03:17:04;18.50;;;4.90;;
13651;SDS011;6899;51.546;6.912;2023-03-26T03:19:32;26.17;;;6.28;;
13651;SDS011;6899;51.546;6.912;2023-03-26T03:22:01;21.42;;;4.43;;
13651;SDS011;6899;51.546;6.912;2023-03-26T03:24:28;20.88;;;5.25;;
13651;SDS011;6899;51.546;6.912;2023-03-26T03:26:58;20.25;;;4.72;;
13651;SDS011;6899;51.546;6.912;2023-03-26T03:29:24;14.30;;;3.88;;
13651;SDS011;6899;51.546;6.912;2023-03-26T03:31:54;17.85;;;5.05;;
13651;SDS011;6899;51.546;6.912;2023-03-26T03:34:20;23.45;;;4.78;;
13651;SDS011;6899;51.546;6.912;2023-03-26T03:36:50;15.63;;;4.03;;
13651;SDS011;6899;51.546;6.912;2023-03-26T03:39:17;21.40;;;5.40;;
13651;SDS011;6899;51.546;6.912;2023-03-26T03:41:50;16.15;;;4.03;;
13651;SDS011;6899;51.546;6.912;2023-03-26T03:44:16;16.60;;;4.55;;
13651;SDS011;6899;51.546;6.912;2023-03-26T03:46:43;18.73;;;4.32;;
13651;SDS011;6899;51.546;6.912;2023-03-26T03:49:10;14.23;;;4.88;;
13651;SDS011;6899;51.546;6.912;2023-03-26T03:51:36;18.92;;;4.82;;
13651;SDS011;6899;51.546;6.912;2023-03-26T03:54:04;21.65;;;5.90;;
13651;SDS011;6899;51.546;6.912;2023-03-26T03:56:32;26.20;;;5.40;;
13651;SDS011;6899;51.546;6.912;2023-03-26T03:59:03;24.10;;;5.47;;
13651;SDS011;6899;51.546;6.912;2023-03-26T04:01:30;27.45;;;6.68;;
13651;SDS011;6899;51.546;6.912;2023-03-26T04:03:57;20.90;;;5.07;;
13651;SDS011;6899;51.546;6.912;2023-03-26T04:06:24;26.95;;;6.50;;
13651;SDS011;6899;51.546;6.912;2023-03-26T04:08:54;21.77;;;5.55;;
13651;SDS011;6899;51.546;6.912;2023-03-26T04:11:25;15.38;;;4.50;;
13651;SDS011;6899;51.546;6.912;2023-03-26T04:13:51;28.73;;;6.07;;
13651;SDS011;6899;51.546;6.912;2023-03-26T04:16:18;28.70;;;6.53;;
13651;SDS011;6899;51.546;6.912;2023-03-26T04:18:45;20.55;;;5.18;;
13651;SDS011;6899;51.546;6.912;2023-03-26T04:21:12;21.65;;;4.88;;
13651;SDS011;6899;51.546;6.912;2023-03-26T04:23:39;22.80;;;5.40;;
13651;SDS011;6899;51.546;6.912;2023-03-26T04:26:07;23.13;;;5.88;;
13651;SDS011;6899;51.546;6.912;2023-03-26T04:28:42;19.70;;;5.32;;
13651;SDS011;6899;51.546;6.912;2023-03-26T04:31:13;20.70;;;4.65;;
13651;SDS011;6899;51.546;6.912;2023-03-26T04:33:48;16.98;;;4.43;;
13651;SDS011;6899;51.546;6.912;2023-03-26T04:36:21;23.15;;;5.05;;
13651;SDS011;6899;51.546;6.912;2023-03-26T04:38:52;14.93;;;4.35;;
13651;SDS011;6899;51.546;6.912;2023-03-26T04:41:22;25.90;;;5.93;;
13651;SDS011;6899;51.546;6.912;2023-03-26T04:43:51;25.55;;;4.93;;
13651;SDS011;6899;51.546;6.912;2023-03-26T04:46:18;19.20;;;5.60;;
13651;SDS011;6899;51.546;6.912;2023-03-26T04:48:47;19.63;;;6.20;;
13651;SDS011;6899;51.546;6.912;2023-03-26T04:51:17;17.13;;;5.88;;
13651;SDS011;6899;51.546;6.912;2023-03-26T04:53:50;22.30;;;5.30;;
13651;SDS011;6899;51.546;6.912;2023-03-26T04:56:22;21.88;;;5.63;;
13651;SDS011;6899;51.546;6.912;2023-03-26T04:59:01;26.58;;;5.28;;
13651;SDS011;6899;51.546;6.912;2023-03-26T05:01:28;31.30;;;5.55;;
13651;SDS011;6899;51.546;6.912;2023-03-26T05:03:55;20.63;;;5.55;;
13651;SDS011;6899;51.546;6.912;2023-03-26T05:06:22;30.55;;;6.18;;
13651;SDS011;6899;51.546;6.912;2023-03-26T05:08:51;15.25;;;5.00;;
13651;SDS011;6899;51.546;6.912;2023-03-26T05:11:18;24.05;;;6.13;;
13651;SDS011;6899;51.546;6.912;2023-03-26T05:13:48;26.88;;;5.90;;
13651;SDS011;6899;51.546;6.912;2023-03-26T05:16:16;19.95;;;4.93;;
13651;SDS011;6899;51.546;6.912;2023-03-26T05:18:43;21.67;;;5.50;;
13651;SDS011;6899;51.546;6.912;2023-03-26T05:21:10;22.65;;;5.25;;
13651;SDS011;6899;51.546;6.912;2023-03-26T05:23:40;24.42;;;5.40;;
13651;SDS011;6899;51.546;6.912;2023-03-26T05:26:07;30.02;;;6.38;;
13651;SDS011;6899;51.546;6.912;2023-03-26T05:28:34;22.90;;;5.55;;
13651;SDS011;6899;51.546;6.912;2023-03-26T05:31:01;17.90;;;4.80;;
13651;SDS011;6899;51.546;6.912;2023-03-26T05:33:30;26.17;;;6.28;;
13651;SDS011;6899;51.546;6.912;2023-03-26T05:36:00;31.50;;;6.05;;
13651;SDS011;6899;51.546;6.912;2023-03-26T05:38:28;17.67;;;4.80;;
13651;SDS011;6899;51.546;6.912;2023-03-26T05:40:58;18.25;;;4.65;;
13651;SDS011;6899;51.546;6.912;2023-03-26T05:43:29;14.38;;;4.40;;
13651;SDS011;6899;51.546;6.912;2023-03-26T05:45:56;23.38;;;5.28;;
13651;SDS011;6899;51.546;6.912;2023-03-26T05:48:23;25.75;;;5.07;;
13651;SDS011;6899;51.546;6.912;2023-03-26T05:50:55;20.33;;;4.85;;
13651;SDS011;6899;51.546;6.912;2023-03-26T05:53:23;20.13;;;4.10;;
13651;SDS011;6899;51.546;6.912;2023-03-26T05:55:51;19.83;;;4.88;;
13651;SDS011;6899;51.546;6.912;2023-03-26T05:58:22;18.67;;;5.28;;
13651;SDS011;6899;51.546;6.912;2023-03-26T06:00:54;16.90;;;5.25;;
13651;SDS011;6899;51.546;6.912;2023-03-26T06:03:25;26.05;;;7.40;;
13651;SDS011;6899;51.546;6.912;2023-03-26T06:05:52;31.77;;;7.00;;
13651;SDS011;6899;51.546;6.912;2023-03-26T06:08:20;22.33;;;6.32;;
13651;SDS011;6899;51.546;6.912;2023-03-26T06:10:46;23.50;;;6.78;;
13651;SDS011;6899;51.546;6.912;2023-03-26T06:13:14;13.45;;;4.95;;
13651;SDS011;6899;51.546;6.912;2023-03-26T06:15:41;16.58;;;4.90;;
13651;SDS011;6899;51.546;6.912;2023-03-26T06:18:08;19.10;;;5.13;;
13651;SDS011;6899;51.546;6.912;2023-03-26T06:20:42;12.98;;;4.88;;
13651;SDS011;6899;51.546;6.912;2023-03-26T06:23:09;19.65;;;7.40;;
13651;SDS011;6899;51.546;6.912;2023-03-26T06:25:37;19.88;;;7.30;;
13651;SDS011;6899;51.546;6.912;2023-03-26T06:28:05;23.50;;;6.05;;
13651;SDS011;6899;51.546;6.912;2023-03-26T06:30:32;20.20;;;5.45;;
13651;SDS011;6899;51.546;6.912;2023-03-26T06:32:59;23.75;;;5.65;;
13651;SDS011;6899;51.546;6.912;2023-03-26T06:35:25;19.55;;;5.13;;
13651;SDS011;6899;51.546;6.912;2023-03-26T06:37:53;24.60;;;6.82;;
13651;SDS011;6899;51.546;6.912;2023-03-26T06:40:20;17.25;;;5.45;;
13651;SDS011;6899;51.546;6.912;2023-03-26T06:42:51;25.05;;;5.47;;
13651;SDS011;6899;51.546;6.912;2023-03-26T06:45:20;23.67;;;6.05;;
13651;SDS011;6899;51.546;6.912;2023-03-26T06:47:50;16.08;;;5.95;;
13651;SDS011;6899;51.546;6.912;2023-03-26T06:50:16;19.45;;;5.03;;
13651;SDS011;6899;51.546;6.912;2023-03-26T06:52:43;18.23;;;5.18;;
13651;SDS011;6899;51.546;6.912;2023-03-26T06:55:10;14.25;;;4.93;;
13651;SDS011;6899;51.546;6.912;2023-03-26T06:57:37;24.95;;;6.38;;
13651;SDS011;6899;51.546;6.912;2023-03-26T07:00:06;14.60;;;7.22;;
13651;SDS011;6899;51.546;6.912;2023-03-26T07:02:34;29.05;;;8.88;;
13651;SDS011;6899;51.546;6.912;2023-03-26T07:05:01;30.40;;;8.02;;
13651;SDS011;6899;51.546;6.912;2023-03-26T07:07:28;23.15;;;7.47;;
13651;SDS011;6899;51.546;6.912;2023-03-26T07:09:55;29.30;;;7.80;;
13651;SDS011;6899;51.546;6.912;2023-03-26T07:12:24;25.15;;;8.07;;
13651;SDS011;6899;51.546;6.912;2023-03-26T07:14:55;16.65;;;6.80;;
13651;SDS011;6899;51.546;6.912;2023-03-26T07:17:23;24.67;;;8.52;;
13651;SDS011;6899;51.546;6.912;2023-03-26T07:19:49;19.90;;;5.93;;
13651;SDS011;6899;51.546;6.912;2023-03-26T07:22:18;19.08;;;5.57;;
13651;SDS011;6899;51.546;6.912;2023-03-26T07:24:47;23.30;;;5.90;;
13651;SDS011;6899;51.546;6.912;2023-03-26T07:27:17;21.77;;;5.10;;
13651;SDS011;6899;51.546;6.912;2023-03-26T07:29:53;14.63;;;4.45;;
13651;SDS011;6899;51.546;6.912;2023-03-26T07:32:31;18.02;;;4.82;;
13651;SDS011;6899;51.546;6.912;2023-03-26T07:35:04;14.93;;;4.60;;
13651;SDS011;6899;51.546;6.912;2023-03-26T07:37:40;25.88;;;6.00;;
13651;SDS011;6899;51.546;6.912;2023-03-26T07:40:16;19.80;;;5.60;;
13651;SDS011;6899;51.546;6.912;2023-03-26T07:42:56;20.67;;;4.70;;
13651;SDS011;6899;51.546;6.912;2023-03-26T07:45:28;15.38;;;5.75;;
13651;SDS011;6899;51.546;6.912;2023-03-26T07:48:00;15.30;;;4.30;;
13651;SDS011;6899;51.546;6.912;2023-03-26T07:50:28;20.02;;;4.88;;
13651;SDS011;6899;51.546;6.912;2023-03-26T07:52:55;20.58;;;5.68;;
13651;SDS011;6899;51.546;6.912;2023-03-26T07:55:23;19.02;;;5.60;;
13651;SDS011;6899;51.546;6.912;2023-03-26T07:58:14;21.30;;;5.20;;
13651;SDS011;6899;51.546;6.912;2023-03-26T08:00:55;18.90;;;6.10;;
13651;SDS011;6899;51.546;6.912;2023-03-26T08:03:28;19.23;;;5.57;;
13651;SDS011;6899;51.546;6.912;2023-03-26T08:06:02;17.80;;;6.38;;
13651;SDS011;6899;51.546;6.912;2023-03-26T08:08:37;22.17;;;6.55;;
13651;SDS011;6899;51.546;6.912;2023-03-26T08:11:10;17.42;;;6.00;;
13651;SDS011;6899;51.546;6.912;2023-03-26T08:13:51;23.17;;;7.45;;
13651;SDS011;6899;51.546;6.912;2023-03-26T08:16:26;15.32;;;5.75;;
13651;SDS011;6899;51.546;6.912;2023-03-26T08:19:03;23.45;;;7.38;;
13651;SDS011;6899;51.546;6.912;2023-03-26T08:21:41;19.35;;;5.75;;
13651;SDS011;6899;51.546;6.912;2023-03-26T08:24:12;14.18;;;5.47;;
13651;SDS011;6899;51.546;6.912;2023-03-26T08:26:46;19.42;;;6.30;;
13651;SDS011;6899;51.546;6.912;2023-03-26T08:29:19;16.90;;;6.50;;
13651;SDS011;6899;51.546;6.912;2023-03-26T08:31:52;18.30;;;5.60;;
13651;SDS011;6899;51.546;6.912;2023-03-26T08:34:22;22.70;;;6.63;;
13651;SDS011;6899;51.546;6.912;2023-03-26T08:36:49;13.88;;;5.70;;
13651;SDS011;6899;51.546;6.912;2023-03-26T08:39:16;18.73;;;5.80;;
13651;SDS011;6899;51.546;6.912;2023-03-26T08:41:58;17.00;;;5.20;;
13651;SDS011;6899;51.546;6.912;2023-03-26T08:44:48;16.02;;;5.50;;
13651;SDS011;6899;51.546;6.912;2023-03-26T08:47:47;17.92;;;5.07;;
13651;SDS011;6899;51.546;6.912;2023-03-26T08:50:49;21.23;;;5.18;;
13651;SDS011;6899;51.546;6.912;2023-03-26T08:53:44;15.27;;;5.38;;
13651;SDS011;6899;51.546;6.912;2023-03-26T08:56:37;13.80;;;6.28;;
13651;SDS011;6899;51.546;6.912;2023-03-26T09:14:30;16.02;;;6.07;;
13651;SDS011;6899;51.546;6.912;2023-03-26T09:17:25;18.83;;;5.53;;
13651;SDS011;6899;51.546;6.912;2023-03-26T09:29:27;15.75;;;5.47;;
13651;SDS011;6899;51.546;6.912;2023-03-26T09:35:31;13.98;;;5.65;;
13651;SDS011;6899;51.546;6.912;2023-03-26T09:38:28;12.73;;;5.15;;
13651;SDS011;6899;51.546;6.912;2023-03-26T09:41:21;20.42;;;6.47;;
13651;SDS011;6899;51.546;6.912;2023-03-26T09:50:00;14.68;;;5.57;;
13651;SDS011;6899;51.546;6.912;2023-03-26T09:52:46;15.82;;;5.97;;
13651;SDS011;6899;51.546;6.912;2023-03-26T09:55:30;12.63;;;5.88;;
13651;SDS011;6899;51.546;6.912;2023-03-26T09:58:32;14.05;;;6.22;;
13651;SDS011;6899;51.546;6.912;2023-03-26T10:01:14;16.45;;;5.90;;
13651;SDS011;6899;51.546;6.912;2023-03-26T10:03:50;16.55;;;5.60;;
13651;SDS011;6899;51.546;6.912;2023-03-26T10:06:29;13.02;;;5.63;;
13651;SDS011;6899;51.546;6.912;2023-03-26T10:09:10;15.98;;;5.68;;
13651;SDS011;6899;51.546;6.912;2023-03-26T10:12:04;12.68;;;4.95;;
13651;SDS011;6899;51.546;6.912;2023-03-26T10:14:40;14.38;;;6.30;;
13651;SDS011;6899;51.546;6.912;2023-03-26T10:17:19;13.73;;;6.15;;
13651;SDS011;6899;51.546;6.912;2023-03-26T10:19:59;14.60;;;7.07;;
13651;SDS011;6899;51.546;6.912;2023-03-26T10:22:38;17.17;;;7.10;;
13651;SDS011;6899;51.546;6.912;2023-03-26T10:25:16;9.90;;;5.30;;
13651;SDS011;6899;51.546;6.912;2023-03-26T10:27:56;12.32;;;5.72;;
13651;SDS011;6899;51.546;6.912;2023-03-26T10:30:43;13.38;;;5.35;;
13651;SDS011;6899;51.546;6.912;2023-03-26T10:33:24;13.07;;;4.35;;
13651;SDS011;6899;51.546;6.912;2023-03-26T10:36:04;6.93;;;3.03;;
13651;SDS011;6899;51.546;6.912;2023-03-26T10:38:51;6.50;;;3.05;;
13651;SDS011;6899;51.546;6.912;2023-03-26T10:41:29;5.40;;;3.10;;
13651;SDS011;6899;51.546;6.912;2023-03-26T10:44:08;7.13;;;2.83;;
13651;SDS011;6899;51.546;6.912;2023-03-26T10:46:59;8.73;;;3.13;;
13651;SDS011;6899;51.546;6.912;2023-03-26T10:49:46;6.50;;;2.40;;
13651;SDS011;6899;51.546;6.912;2023-03-26T10:52:30;5.80;;;2.47;;
13651;SDS011;6899;51.546;6.912;2023-03-26T10:55:03;5.15;;;2.88;;
13651;SDS011;6899;51.546;6.912;2023-03-26T10:57:40;4.45;;;2.05;;
13651;SDS011;6899;51.546;6.912;2023-03-26T11:00:16;4.00;;;1.80;;
13651;SDS011;6899;51.546;6.912;2023-03-26T11:05:45;4.50;;;1.70;;
13651;SDS011;6899;51.546;6.912;2023-03-26T11:08:19;5.20;;;2.00;;
13651;SDS011;6899;51.546;6.912;2023-03-26T11:10:51;5.15;;;2.15;;
13651;SDS011;6899;51.546;6.912;2023-03-26T11:13:28;5.25;;;2.72;;
13651;SDS011;6899;51.546;6.912;2023-03-26T11:16:04;5.65;;;2.55;;
13651;SDS011;6899;51.546;6.912;2023-03-26T11:18:37;3.45;;;1.90;;
13651;SDS011;6899;51.546;6.912;2023-03-26T11:21:10;2.78;;;1.92;;
13651;SDS011;6899;51.546;6.912;2023-03-26T11:23:56;4.68;;;2.13;;
13651;SDS011;6899;51.546;6.912;2023-03-26T11:26:43;3.60;;;1.95;;
13651;SDS011;6899;51.546;6.912;2023-03-26T11:29:23;4.60;;;1.85;;
13651;SDS011;6899;51.546;6.912;2023-03-26T11:32:02;3.20;;;1.75;;
13651;SDS011;6899;51.546;6.912;2023-03-26T11:34:32;1.67;;;1.17;;
13651;SDS011;6899;51.546;6.912;2023-03-26T11:37:03;2.95;;;1.92;;
13651;SDS011;6899;51.546;6.912;2023-03-26T11:39:40;3.08;;;2.00;;
13651;SDS011;6899;51.546;6.912;2023-03-26T11:42:12;2.15;;;1.70;;
13651;SDS011;6899;51.546;6.912;2023-03-26T11:44:41;3.35;;;2.00;;
13651;SDS011;6899;51.546;6.912;2023-03-26T11:47:14;4.00;;;2.22;;
13651;SDS011;6899;51.546;6.912;2023-03-26T11:49:47;2.92;;;1.88;;
13651;SDS011;6899;51.546;6.912;2023-03-26T11:52:16;4.18;;;1.92;;
13651;SDS011;6899;51.546;6.912;2023-03-26T11:54:44;2.13;;;1.50;;
13651;SDS011;6899;51.546;6.912;2023-03-26T11:57:12;3.75;;;2.13;;
13651;SDS011;6899;51.546;6.912;2023-03-26T11:59:47;2.20;;;1.40;;
13651;SDS011;6899;51.546;6.912;2023-03-26T12:02:23;4.82;;;3.20;;
13651;SDS011;6899;51.546;6.912;2023-03-26T12:05:02;6.45;;;4.13;;
13651;SDS011;6899;51.546;6.912;2023-03-26T12:07:40;12.77;;;8.00;;
13651;SDS011;6899;51.546;6.912;2023-03-26T12:10:19;9.38;;;5.53;;
13651;SDS011;6899;51.546;6.912;2023-03-26T12:12:57;4.05;;;2.72;;
13651;SDS011;6899;51.546;6.912;2023-03-26T12:15:26;4.60;;;3.15;;
13651;SDS011;6899;51.546;6.912;2023-03-26T12:17:55;2.60;;;2.00;;
13651;SDS011;6899;51.546;6.912;2023-03-26T12:20:31;4.25;;;2.22;;
13651;SDS011;6899;51.546;6.912;2023-03-26T12:23:00;3.17;;;2.40;;
13651;SDS011;6899;51.546;6.912;2023-03-26T12:25:30;2.72;;;1.63;;
13651;SDS011;6899;51.546;6.912;2023-03-26T12:28:09;3.30;;;2.03;;
13651;SDS011;6899;51.546;6.912;2023-03-26T12:30:49;2.85;;;1.63;;
13651;SDS011;6899;51.546;6.912;2023-03-26T12:33:20;3.38;;;1.63;;
13651;SDS011;6899;51.546;6.912;2023-03-26T12:35:50;3.40;;;1.50;;
13651;SDS011;6899;51.546;6.912;2023-03-26T12:38:22;2.45;;;1.80;;
13651;SDS011;6899;51.546;6.912;2023-03-26T12:41:03;3.63;;;2.35;;
13651;SDS011;6899;51.546;6.912;2023-03-26T12:43:36;3.30;;;2.30;;
13651;SDS011;6899;51.546;6.912;2023-03-26T12:46:17;5.90;;;4.25;;
13651;SDS011;6899;51.546;6.912;2023-03-26T12:48:47;10.00;;;6.22;;
13651;SDS011;6899;51.546;6.912;2023-03-26T12:51:16;6.78;;;5.75;;
13651;SDS011;6899;51.546;6.912;2023-03-26T12:53:54;3.38;;;2.22;;
13651;SDS011;6899;51.546;6.912;2023-03-26T12:56:34;5.45;;;3.28;;
13651;SDS011;6899;51.546;6.912;2023-03-26T12:59:12;3.67;;;2.30;;
13651;SDS011;6899;51.546;6.912;2023-03-26T13:01:52;3.05;;;1.90;;
13651;SDS011;6899;51.546;6.912;2023-03-26T13:07:20;5.05;;;2.67;;
13651;SDS011;6899;51.546;6.912;2023-03-26T13:09:57;3.55;;;1.85;;
13651;SDS011;6899;51.546;6.912;2023-03-26T13:12:49;5.25;;;2.63;;
13651;SDS011;6899;51.546;6.912;2023-03-26T13:15:30;2.33;;;2.10;;
13651;SDS011;6899;51.546;6.912;2023-03-26T13:18:02;3.50;;;1.58;;
13651;SDS011;6899;51.546;6.912;2023-03-26T13:20:46;4.90;;;1.90;;
13651;SDS011;6899;51.546;6.912;2023-03-26T13:23:18;4.90;;;2.15;;
13651;SDS011;6899;51.546;6.912;2023-03-26T13:25:53;4.78;;;1.65;;
13651;SDS011;6899;51.546;6.912;2023-03-26T13:28:30;2.85;;;2.20;;
13651;SDS011;6899;51.546;6.912;2023-03-26T13:31:07;8.75;;;4.20;;
13651;SDS011;6899;51.546;6.912;2023-03-26T13:33:41;8.18;;;4.13;;
13651;SDS011;6899;51.546;6.912;2023-03-26T13:36:15;9.27;;;5.20;;
13651;SDS011;6899;51.546;6.912;2023-03-26T13:38:50;5.20;;;3.58;;
13651;SDS011;6899;51.546;6.912;2023-03-26T13:41:32;4.63;;;2.88;;
13651;SDS011;6899;51.546;6.912;2023-03-26T13:44:12;5.97;;;2.53;;
13651;SDS011;6899;51.546;6.912;2023-03-26T13:46:48;4.10;;;2.00;;
13651;SDS011;6899;51.546;6.912;2023-03-26T13:49:22;2.95;;;2.00;;
13651;SDS011;6899;51.546;6.912;2023-03-26T13:51:54;5.72;;;2.65;;
13651;SDS011;6899;51.546;6.912;2023-03-26T13:54:26;3.47;;;2.20;;
13651;SDS011;6899;51.546;6.912;2023-03-26T13:56:58;4.93;;;3.35;;
13651;SDS011;6899;51.546;6.912;2023-03-26T13:59:32;5.75;;;3.03;;
13651;SDS011;6899;51.546;6.912;2023-03-26T14:02:04;5.90;;;3.60;;
13651;SDS011;6899;51.546;6.912;2023-03-26T14:04:37;5.30;;;3.35;;
13651;SDS011;6899;51.546;6.912;2023-03-26T14:07:08;9.63;;;3.97;;
13651;SDS011;6899;51.546;6.912;2023-03-26T14:09:49;7.65;;;4.15;;
13651;SDS011;6899;51.546;6.912;2023-03-26T14:15:18;5.68;;;3.10;;
13651;SDS011;6899;51.546;6.912;2023-03-26T14:17:49;7.32;;;2.95;;
13651;SDS011;6899;51.546;6.912;2023-03-26T14:20:22;6.15;;;3.85;;
13651;SDS011;6899;51.546;6.912;2023-03-26T14:23:07;9.10;;;4.82;;
13651;SDS011;6899;51.546;6.912;2023-03-26T14:25:51;8.25;;;4.03;;
13651;SDS011;6899;51.546;6.912;2023-03-26T14:31:55;5.05;;;3.22;;
13651;SDS011;6899;51.546;6.912;2023-03-26T14:34:39;6.25;;;3.00;;
13651;SDS011;6899;51.546;6.912;2023-03-26T14:40:26;6.70;;;3.20;;
13651;SDS011;6899;51.546;6.912;2023-03-26T14:42:57;4.90;;;1.80;;
13651;SDS011;6899;51.546;6.912;2023-03-26T14:45:48;3.83;;;1.92;;
13651;SDS011;6899;51.546;6.912;2023-03-26T14:48:36;4.80;;;2.20;;
13651;SDS011;6899;51.546;6.912;2023-03-26T14:51:42;6.32;;;2.90;;
13651;SDS011;6899;51.546;6.912;2023-03-26T14:54:23;4.90;;;2.30;;
13651;SDS011;6899;51.546;6.912;2023-03-26T14:57:07;5.22;;;2.67;;
13651;SDS011;6899;51.546;6.912;2023-03-26T15:00:05;5.50;;;2.50;;
13651;SDS011;6899;51.546;6.912;2023-03-26T15:06:25;4.10;;;2.95;;
13651;SDS011;6899;51.546;6.912;2023-03-26T15:09:22;5.40;;;3.10;;
13651;SDS011;6899;51.546;6.912;2023-03-26T15:12:17;3.50;;;2.63;;
13651;SDS011;6899;51.546;6.912;2023-03-26T15:21:19;4.20;;;2.85;;
13651;SDS011;6899;51.546;6.912;2023-03-26T15:24:06;6.72;;;3.45;;
13651;SDS011;6899;51.546;6.912;2023-03-26T15:27:31;7.15;;;3.67;;
13651;SDS011;6899;51.546;6.912;2023-03-26T15:36:55;6.82;;;4.40;;
13651;SDS011;6899;51.546;6.912;2023-03-26T15:39:45;8.35;;;5.28;;
13651;SDS011;6899;51.546;6.912;2023-03-26T15:42:34;7.07;;;5.40;;
13651;SDS011;6899;51.546;6.912;2023-03-26T15:48:06;15.10;;;7.53;;
13651;SDS011;6899;51.546;6.912;2023-03-26T15:51:05;13.93;;;6.75;;
13651;SDS011;6899;51.546;6.912;2023-03-26T15:53:51;19.45;;;7.82;;
13651;SDS011;6899;51.546;6.912;2023-03-26T15:56:29;16.90;;;7.70;;
13651;SDS011;6899;51.546;6.912;2023-03-26T15:59:07;16.27;;;7.90;;
13651;SDS011;6899;51.546;6.912;2023-03-26T16:01:49;27.17;;;10.60;;
13651;SDS011;6899;51.546;6.912;2023-03-26T16:04:28;18.48;;;7.78;;
13651;SDS011;6899;51.546;6.912;2023-03-26T16:07:13;24.52;;;9.05;;
13651;SDS011;6899;51.546;6.912;2023-03-26T16:10:26;19.08;;;9.55;;
13651;SDS011;6899;51.546;6.912;2023-03-26T16:16:16;28.90;;;8.63;;
13651;SDS011;6899;51.546;6.912;2023-03-26T16:18:49;22.42;;;8.00;;
13651;SDS011;6899;51.546;6.912;2023-03-26T16:21:37;16.42;;;7.20;;
13651;SDS011;6899;51.546;6.912;2023-03-26T16:24:22;14.50;;;6.03;;
13651;SDS011;6899;51.546;6.912;2023-03-26T16:27:00;17.98;;;6.10;;
13651;SDS011;6899;51.546;6.912;2023-03-26T16:32:54;18.77;;;6.18;;
13651;SDS011;6899;51.546;6.912;2023-03-26T16:35:35;23.98;;;6.70;;
13651;SDS011;6899;51.546;6.912;2023-03-26T16:38:18;15.35;;;6.28;;
13651;SDS011;6899;51.546;6.912;2023-03-26T16:40:56;19.45;;;7.57;;
13651;SDS011;6899;51.546;6.912;2023-03-26T16:43:33;16.65;;;6.32;;
13651;SDS011;6899;51.546;6.912;2023-03-26T16:46:14;26.98;;;7.20;;
13651;SDS011;6899;51.546;6.912;2023-03-26T16:48:54;16.35;;;6.90;;